sensor_id;sensor_type;location;lat;lon;timestamp;pressure;altitude;pressure_sealevel;temperature;humidity
78717;BME280;68045;50.042;14.432;2023-07-09T00:03:01;98714.03;;;20.51;46.12
78717;BME280;68045;50.042;14.432;2023-07-09T00:07:03;98716.31;;;20.34;46.74
78717;BME280;68045;50.042;14.432;2023-07-09T00:11:04;98730.84;;;20.27;47.22
78717;BME280;68045;50.042;14.432;2023-07-09T00:15:06;98726.88;;;20.20;47.46
78717;BME280;68045;50.042;14.432;2023-07-09T00:19:19;98725.81;;;20.21;47.45
78717;BME280;68045;50.042;14.432;2023-07-09T00:23:20;98730.06;;;20.22;47.64
78717;BME280;68045;50.042;14.432;2023-07-09T00:27:22;98723.19;;;20.16;47.84
78717;BME280;68045;50.042;14.432;2023-07-09T00:31:25;98724.31;;;20.10;48.09
78717;BME280;68045;50.042;14.432;2023-07-09T00:35:27;98741.22;;;20.05;48.56
78717;BME280;68045;50.042;14.432;2023-07-09T00:39:28;98731.88;;;20.02;48.59
78717;BME280;68045;50.042;14.432;2023-07-09T00:43:38;98732.44;;;19.94;49.12
78717;BME280;68045;50.042;14.432;2023-07-09T00:51:45;98726.88;;;19.86;48.83
78717;BME280;68045;50.042;14.432;2023-07-09T00:55:54;98730.16;;;19.78;49.49
78717;BME280;68045;50.042;14.432;2023-07-09T01:00:04;98726.00;;;19.51;50.39
78717;BME280;68045;50.042;14.432;2023-07-09T01:04:13;98724.41;;;19.50;50.78
78717;BME280;68045;50.042;14.432;2023-07-09T01:08:18;98720.00;;;19.25;51.30
78717;BME280;68045;50.042;14.432;2023-07-09T01:12:22;98718.41;;;19.24;51.44
78717;BME280;68045;50.042;14.432;2023-07-09T01:16:29;98725.72;;;19.03;51.84
78717;BME280;68045;50.042;14.432;2023-07-09T01:20:31;98732.97;;;18.87;52.59
78717;BME280;68045;50.042;14.432;2023-07-09T01:28:52;98732.72;;;18.74;53.10
78717;BME280;68045;50.042;14.432;2023-07-09T01:32:57;98730.84;;;18.74;52.90
78717;BME280;68045;50.042;14.432;2023-07-09T01:36:58;98727.94;;;18.50;53.77
78717;BME280;68045;50.042;14.432;2023-07-09T01:41:00;98732.22;;;18.46;53.72
78717;BME280;68045;50.042;14.432;2023-07-09T01:45:02;98733.84;;;18.37;53.89
78717;BME280;68045;50.042;14.432;2023-07-09T01:49:06;98729.03;;;18.39;53.73
78717;BME280;68045;50.042;14.432;2023-07-09T01:53:09;98727.97;;;18.35;54.01
78717;BME280;68045;50.042;14.432;2023-07-09T01:57:22;98732.25;;;18.41;53.53
78717;BME280;68045;50.042;14.432;2023-07-09T02:01:24;98738.13;;;18.43;53.38
78717;BME280;68045;50.042;14.432;2023-07-09T02:05:26;98733.59;;;18.28;54.01
78717;BME280;68045;50.042;14.432;2023-07-09T02:09:27;98732.78;;;18.23;53.89
78717;BME280;68045;50.042;14.432;2023-07-09T02:13:28;98733.84;;;18.17;54.55
78717;BME280;68045;50.042;14.432;2023-07-09T02:17:29;98734.91;;;18.10;54.69
78717;BME280;68045;50.042;14.432;2023-07-09T02:21:30;98742.13;;;18.00;55.24
78717;BME280;68045;50.042;14.432;2023-07-09T02:25:31;98738.91;;;18.03;54.92
78717;BME280;68045;50.042;14.432;2023-07-09T02:29:33;98736.00;;;17.84;55.66
78717;BME280;68045;50.042;14.432;2023-07-09T02:33:34;98735.44;;;17.87;56.23
78717;BME280;68045;50.042;14.432;2023-07-09T02:37:36;98750.66;;;17.71;56.59
78717;BME280;68045;50.042;14.432;2023-07-09T02:41:37;98747.66;;;17.57;57.14
78717;BME280;68045;50.042;14.432;2023-07-09T02:45:38;98754.56;;;17.48;57.70
78717;BME280;68045;50.042;14.432;2023-07-09T02:49:39;98751.34;;;17.41;58.15
78717;BME280;68045;50.042;14.432;2023-07-09T02:53:40;98750.25;;;17.37;58.14
78717;BME280;68045;50.042;14.432;2023-07-09T02:57:41;98749.44;;;17.32;57.94
78717;BME280;68045;50.042;14.432;2023-07-09T03:01:42;98752.38;;;17.30;57.96
78717;BME280;68045;50.042;14.432;2023-07-09T03:05:47;98747.53;;;17.22;59.00
78717;BME280;68045;50.042;14.432;2023-07-09T03:09:48;98752.59;;;17.13;59.39
78717;BME280;68045;50.042;14.432;2023-07-09T03:13:49;98752.03;;;17.11;59.22
78717;BME280;68045;50.042;14.432;2023-07-09T03:17:50;98762.72;;;17.16;59.12
78717;BME280;68045;50.042;14.432;2023-07-09T03:21:50;98763.25;;;17.13;59.36
78717;BME280;68045;50.042;14.432;2023-07-09T03:25:51;98767.53;;;17.14;59.03
78717;BME280;68045;50.042;14.432;2023-07-09T03:29:52;98771.03;;;17.20;59.12
78717;BME280;68045;50.042;14.432;2023-07-09T03:33:53;98779.00;;;17.15;59.63
78717;BME280;68045;50.042;14.432;2023-07-09T03:37:54;98783.00;;;17.17;59.10
78717;BME280;68045;50.042;14.432;2023-07-09T03:41:55;98789.44;;;17.21;59.19
78717;BME280;68045;50.042;14.432;2023-07-09T03:45:56;98782.19;;;17.17;59.31
78717;BME280;68045;50.042;14.432;2023-07-09T03:49:56;98785.97;;;17.26;58.78
78717;BME280;68045;50.042;14.432;2023-07-09T03:53:57;98782.19;;;17.17;59.10
78717;BME280;68045;50.042;14.432;2023-07-09T03:57:58;98778.53;;;17.33;58.49
78717;BME280;68045;50.042;14.432;2023-07-09T04:01:59;98776.66;;;17.34;58.97
78717;BME280;68045;50.042;14.432;2023-07-09T04:06:02;98780.06;;;17.19;59.25
78717;BME280;68045;50.042;14.432;2023-07-09T04:10:04;98786.75;;;17.26;59.00
78717;BME280;68045;50.042;14.432;2023-07-09T04:14:05;98787.25;;;17.18;59.43
78717;BME280;68045;50.042;14.432;2023-07-09T04:18:07;98795.59;;;17.32;59.31
78717;BME280;68045;50.042;14.432;2023-07-09T04:22:10;98791.34;;;17.36;59.04
78717;BME280;68045;50.042;14.432;2023-07-09T04:26:13;98797.44;;;17.21;59.99
78717;BME280;68045;50.042;14.432;2023-07-09T04:30:14;98794.28;;;17.35;59.52
78717;BME280;68045;50.042;14.432;2023-07-09T04:34:15;98804.41;;;17.33;59.07
78717;BME280;68045;50.042;14.432;2023-07-09T04:38:16;98797.75;;;17.35;59.08
78717;BME280;68045;50.042;14.432;2023-07-09T04:42:17;98803.06;;;17.30;58.75
78717;BME280;68045;50.042;14.432;2023-07-09T04:46:18;98806.84;;;17.44;58.15
78717;BME280;68045;50.042;14.432;2023-07-09T04:50:19;98811.41;;;17.44;57.63
78717;BME280;68045;50.042;14.432;2023-07-09T04:54:20;98813.53;;;17.47;58.04
78717;BME280;68045;50.042;14.432;2023-07-09T04:58:23;98815.19;;;17.58;58.10
78717;BME280;68045;50.042;14.432;2023-07-09T05:02:24;98818.69;;;17.64;57.51
78717;BME280;68045;50.042;14.432;2023-07-09T05:06:25;98821.97;;;17.81;56.40
78717;BME280;68045;50.042;14.432;2023-07-09T05:10:26;98823.06;;;17.95;56.89
78717;BME280;68045;50.042;14.432;2023-07-09T05:14:27;98827.38;;;18.11;56.16
78717;BME280;68045;50.042;14.432;2023-07-09T05:18:28;98821.25;;;18.21;56.25
78717;BME280;68045;50.042;14.432;2023-07-09T05:22:29;98829.00;;;18.33;55.87
78717;BME280;68045;50.042;14.432;2023-07-09T05:26:30;98826.06;;;18.34;55.53
78717;BME280;68045;50.042;14.432;2023-07-09T05:30:32;98824.47;;;18.49;54.54
78717;BME280;68045;50.042;14.432;2023-07-09T05:34:33;98832.19;;;18.60;54.41
78717;BME280;68045;50.042;14.432;2023-07-09T05:38:34;98833.84;;;18.77;54.16
78717;BME280;68045;50.042;14.432;2023-07-09T05:42:34;98829.53;;;18.96;52.90
78717;BME280;68045;50.042;14.432;2023-07-09T05:46:37;98828.69;;;19.11;52.38
78717;BME280;68045;50.042;14.432;2023-07-09T05:50:38;98833.69;;;19.38;51.35
78717;BME280;68045;50.042;14.432;2023-07-09T05:54:39;98830.19;;;19.47;51.26
78717;BME280;68045;50.042;14.432;2023-07-09T05:58:40;98829.34;;;19.62;50.54
78717;BME280;68045;50.042;14.432;2023-07-09T06:02:41;98832.75;;;19.78;50.09
78717;BME280;68045;50.042;14.432;2023-07-09T06:06:42;98835.63;;;19.92;49.83
78717;BME280;68045;50.042;14.432;2023-07-09T06:10:58;98829.84;;;20.14;49.96
78717;BME280;68045;50.042;14.432;2023-07-09T06:14:59;98830.03;;;20.27;49.42
78717;BME280;68045;50.042;14.432;2023-07-09T06:19:00;98837.97;;;20.48;47.92
78717;BME280;68045;50.042;14.432;2023-07-09T06:23:01;98832.72;;;20.67;47.90
78717;BME280;68045;50.042;14.432;2023-07-09T06:27:03;98835.47;;;20.85;47.53
78717;BME280;68045;50.042;14.432;2023-07-09T06:31:04;98835.28;;;21.06;47.25
78717;BME280;68045;50.042;14.432;2023-07-09T06:35:05;98832.91;;;21.28;47.11
78717;BME280;68045;50.042;14.432;2023-07-09T06:39:06;98836.81;;;21.41;46.32
78717;BME280;68045;50.042;14.432;2023-07-09T06:43:07;98834.63;;;21.67;45.50
78717;BME280;68045;50.042;14.432;2023-07-09T06:47:12;98834.78;;;21.94;45.26
78717;BME280;68045;50.042;14.432;2023-07-09T06:51:13;98842.53;;;22.20;43.99
78717;BME280;68045;50.042;14.432;2023-07-09T06:55:13;98836.66;;;22.51;43.61
78717;BME280;68045;50.042;14.432;2023-07-09T06:59:14;98841.91;;;22.74;42.24
78717;BME280;68045;50.042;14.432;2023-07-09T07:03:16;98831.91;;;22.94;41.53
78717;BME280;68045;50.042;14.432;2023-07-09T07:07:17;98840.09;;;23.02;41.67
78717;BME280;68045;50.042;14.432;2023-07-09T07:11:18;98836.44;;;23.26;41.18
78717;BME280;68045;50.042;14.432;2023-07-09T07:15:18;98834.34;;;23.50;40.90
78717;BME280;68045;50.042;14.432;2023-07-09T07:19:19;98833.84;;;23.76;40.55
78717;BME280;68045;50.042;14.432;2023-07-09T07:23:20;98833.59;;;24.00;39.39
78717;BME280;68045;50.042;14.432;2023-07-09T07:27:21;98835.19;;;24.23;39.23
78717;BME280;68045;50.042;14.432;2023-07-09T07:31:22;98845.31;;;24.54;38.21
78717;BME280;68045;50.042;14.432;2023-07-09T07:35:23;98838.09;;;24.72;37.83
78717;BME280;68045;50.042;14.432;2023-07-09T07:39:24;98839.22;;;25.02;37.50
78717;BME280;68045;50.042;14.432;2023-07-09T07:43:25;98841.44;;;25.31;36.69
78717;BME280;68045;50.042;14.432;2023-07-09T07:47:26;98839.78;;;25.61;36.01
78717;BME280;68045;50.042;14.432;2023-07-09T07:51:27;98832.22;;;25.89;36.06
78717;BME280;68045;50.042;14.432;2023-07-09T07:55:28;98834.31;;;26.09;34.04
78717;BME280;68045;50.042;14.432;2023-07-09T07:59:29;98827.78;;;26.36;33.54
78717;BME280;68045;50.042;14.432;2023-07-09T08:03:30;98826.16;;;26.61;32.94
78717;BME280;68045;50.042;14.432;2023-07-09T08:07:31;98820.88;;;26.82;33.36
78717;BME280;68045;50.042;14.432;2023-07-09T08:11:32;98814.59;;;26.99;32.48
78717;BME280;68045;50.042;14.432;2023-07-09T08:15:34;98822.50;;;27.21;32.04
78717;BME280;68045;50.042;14.432;2023-07-09T08:19:47;98818.72;;;27.43;32.48
78717;BME280;68045;50.042;14.432;2023-07-09T08:23:48;98823.84;;;27.65;32.09
78717;BME280;68045;50.042;14.432;2023-07-09T08:27:49;98811.53;;;27.98;31.68
78717;BME280;68045;50.042;14.432;2023-07-09T08:31:50;98816.38;;;28.13;31.41
78717;BME280;68045;50.042;14.432;2023-07-09T08:35:52;98806.47;;;28.50;31.25
78717;BME280;68045;50.042;14.432;2023-07-09T08:39:54;98814.03;;;28.90;30.69
78717;BME280;68045;50.042;14.432;2023-07-09T08:48:38;98802.19;;;29.68;29.13
78717;BME280;68045;50.042;14.432;2023-07-09T08:52:43;98806.22;;;29.86;28.63
78717;BME280;68045;50.042;14.432;2023-07-09T08:56:45;98801.06;;;30.09;29.11
78717;BME280;68045;50.042;14.432;2023-07-09T09:00:54;98807.09;;;30.30;28.38
78717;BME280;68045;50.042;14.432;2023-07-09T09:04:55;98811.41;;;30.59;27.08
78717;BME280;68045;50.042;14.432;2023-07-09T09:13:16;98799.84;;;30.78;26.92
78717;BME280;68045;50.042;14.432;2023-07-09T09:17:20;98809.50;;;30.92;26.22
78717;BME280;68045;50.042;14.432;2023-07-09T09:21:23;98806.53;;;30.97;24.99
78717;BME280;68045;50.042;14.432;2023-07-09T09:25:31;98809.00;;;31.17;24.07
78717;BME280;68045;50.042;14.432;2023-07-09T09:29:32;98808.81;;;31.42;24.20
78717;BME280;68045;50.042;14.432;2023-07-09T09:33:41;98812.78;;;31.64;22.98
78717;BME280;68045;50.042;14.432;2023-07-09T09:37:54;98809.63;;;31.78;23.79
78717;BME280;68045;50.042;14.432;2023-07-09T09:41:57;98804.19;;;31.97;23.31
78717;BME280;68045;50.042;14.432;2023-07-09T09:45:59;98798.03;;;32.00;22.35
78717;BME280;68045;50.042;14.432;2023-07-09T09:50:03;98801.19;;;32.21;23.35
78717;BME280;68045;50.042;14.432;2023-07-09T09:54:14;98802.53;;;32.31;22.86
78717;BME280;68045;50.042;14.432;2023-07-09T09:58:17;98803.25;;;32.28;21.57
78717;BME280;68045;50.042;14.432;2023-07-09T10:02:21;98798.59;;;32.29;21.11
78717;BME280;68045;50.042;14.432;2023-07-09T10:06:45;98803.97;;;32.44;20.88
78717;BME280;68045;50.042;14.432;2023-07-09T10:10:47;98793.44;;;32.66;21.78
78717;BME280;68045;50.042;14.432;2023-07-09T10:15:03;98798.50;;;32.87;21.22
78717;BME280;68045;50.042;14.432;2023-07-09T10:19:25;98792.66;;;32.88;21.49
78717;BME280;68045;50.042;14.432;2023-07-09T10:24:09;98793.88;;;32.91;20.51
78717;BME280;68045;50.042;14.432;2023-07-09T10:28:29;98795.00;;;32.67;20.16
78717;BME280;68045;50.042;14.432;2023-07-09T10:40:49;98787.09;;;33.30;19.96
78717;BME280;68045;50.042;14.432;2023-07-09T10:45:01;98788.50;;;33.47;20.50
78717;BME280;68045;50.042;14.432;2023-07-09T10:49:03;98782.47;;;33.34;20.34
78717;BME280;68045;50.042;14.432;2023-07-09T10:53:13;98776.97;;;33.34;20.49
78717;BME280;68045;50.042;14.432;2023-07-09T10:57:24;98784.66;;;33.25;21.04
78717;BME280;68045;50.042;14.432;2023-07-09T11:01:31;98777.75;;;33.09;20.98
78717;BME280;68045;50.042;14.432;2023-07-09T11:05:33;98777.56;;;33.47;20.64
78717;BME280;68045;50.042;14.432;2023-07-09T11:09:41;98773.59;;;34.01;20.00
78717;BME280;68045;50.042;14.432;2023-07-09T11:13:47;98760.19;;;33.93;18.53
78717;BME280;68045;50.042;14.432;2023-07-09T11:17:49;98767.56;;;34.56;18.14
78717;BME280;68045;50.042;14.432;2023-07-09T11:21:59;98762.16;;;35.11;17.47
78717;BME280;68045;50.042;14.432;2023-07-09T11:26:11;98759.31;;;35.55;16.50
78717;BME280;68045;50.042;14.432;2023-07-09T11:34:27;98763.50;;;36.11;16.41
78717;BME280;68045;50.042;14.432;2023-07-09T11:38:46;98758.38;;;36.13;16.04
78717;BME280;68045;50.042;14.432;2023-07-09T11:42:53;98754.50;;;36.28;15.72
78717;BME280;68045;50.042;14.432;2023-07-09T11:51:16;98754.94;;;36.48;15.75
78717;BME280;68045;50.042;14.432;2023-07-09T11:55:26;98748.22;;;36.24;14.99
78717;BME280;68045;50.042;14.432;2023-07-09T11:59:28;98736.91;;;36.58;15.73
78717;BME280;68045;50.042;14.432;2023-07-09T12:03:34;98741.63;;;36.90;14.75
78717;BME280;68045;50.042;14.432;2023-07-09T12:07:37;98732.56;;;37.00;14.92
78717;BME280;68045;50.042;14.432;2023-07-09T12:11:49;98730.19;;;37.16;15.43
78717;BME280;68045;50.042;14.432;2023-07-09T12:15:51;98731.34;;;37.29;15.17
78717;BME280;68045;50.042;14.432;2023-07-09T12:19:53;98731.72;;;37.28;15.60
78717;BME280;68045;50.042;14.432;2023-07-09T12:23:54;98736.47;;;37.24;14.68
78717;BME280;68045;50.042;14.432;2023-07-09T12:27:58;98717.97;;;37.28;15.51
78717;BME280;68045;50.042;14.432;2023-07-09T12:32:05;98716.47;;;36.91;15.83
78717;BME280;68045;50.042;14.432;2023-07-09T12:36:10;98714.88;;;37.01;15.29
78717;BME280;68045;50.042;14.432;2023-07-09T12:40:21;98710.13;;;37.16;15.87
78717;BME280;68045;50.042;14.432;2023-07-09T12:44:23;98706.63;;;37.04;14.89
78717;BME280;68045;50.042;14.432;2023-07-09T12:48:27;98702.28;;;37.03;15.98
78717;BME280;68045;50.042;14.432;2023-07-09T12:52:28;98692.81;;;37.19;14.89
78717;BME280;68045;50.042;14.432;2023-07-09T12:56:30;98691.66;;;37.09;15.05
78717;BME280;68045;50.042;14.432;2023-07-09T13:00:34;98676.72;;;36.28;14.92
78717;BME280;68045;50.042;14.432;2023-07-09T13:04:38;98670.03;;;35.13;16.24
78717;BME280;68045;50.042;14.432;2023-07-09T13:08:43;98671.69;;;35.32;16.77
78717;BME280;68045;50.042;14.432;2023-07-09T13:12:47;98665.59;;;35.78;16.13
78717;BME280;68045;50.042;14.432;2023-07-09T13:16:49;98656.28;;;36.11;15.50
78717;BME280;68045;50.042;14.432;2023-07-09T13:20:51;98659.81;;;36.15;15.53
78717;BME280;68045;50.042;14.432;2023-07-09T13:24:53;98662.91;;;35.89;15.29
78717;BME280;68045;50.042;14.432;2023-07-09T13:28:53;98657.41;;;35.89;15.51
78717;BME280;68045;50.042;14.432;2023-07-09T13:32:54;98660.22;;;36.03;15.93
78717;BME280;68045;50.042;14.432;2023-07-09T13:36:55;98652.34;;;35.98;16.00
78717;BME280;68045;50.042;14.432;2023-07-09T13:41:01;98655.09;;;36.12;15.64
78717;BME280;68045;50.042;14.432;2023-07-09T13:45:18;98651.59;;;36.26;15.85
78717;BME280;68045;50.042;14.432;2023-07-09T13:49:22;98664.16;;;36.20;15.28
78717;BME280;68045;50.042;14.432;2023-07-09T13:53:27;98658.63;;;35.98;15.14
78717;BME280;68045;50.042;14.432;2023-07-09T13:57:29;98654.25;;;35.87;15.65
78717;BME280;68045;50.042;14.432;2023-07-09T14:01:30;98648.75;;;35.87;15.52
78717;BME280;68045;50.042;14.432;2023-07-09T14:05:31;98649.88;;;35.64;15.83
78717;BME280;68045;50.042;14.432;2023-07-09T14:09:31;98647.09;;;35.57;15.22
78717;BME280;68045;50.042;14.432;2023-07-09T14:13:34;98649.03;;;35.46;15.07
78717;BME280;68045;50.042;14.432;2023-07-09T14:17:35;98649.69;;;35.25;15.25
78717;BME280;68045;50.042;14.432;2023-07-09T14:21:37;98641.03;;;35.23;15.45
78717;BME280;68045;50.042;14.432;2023-07-09T14:25:38;98629.69;;;35.21;15.58
78717;BME280;68045;50.042;14.432;2023-07-09T14:29:39;98631.50;;;34.92;15.90
78717;BME280;68045;50.042;14.432;2023-07-09T14:33:40;98627.91;;;34.88;16.02
78717;BME280;68045;50.042;14.432;2023-07-09T14:37:42;98636.91;;;34.88;16.39
78717;BME280;68045;50.042;14.432;2023-07-09T14:41:43;98634.63;;;34.94;15.76
78717;BME280;68045;50.042;14.432;2023-07-09T14:45:44;98622.88;;;34.93;15.31
78717;BME280;68045;50.042;14.432;2023-07-09T14:49:45;98615.84;;;34.96;14.80
78717;BME280;68045;50.042;14.432;2023-07-09T14:53:46;98613.06;;;34.92;15.55
78717;BME280;68045;50.042;14.432;2023-07-09T14:57:48;98613.72;;;34.75;15.02
78717;BME280;68045;50.042;14.432;2023-07-09T15:01:49;98608.59;;;34.74;15.82
78717;BME280;68045;50.042;14.432;2023-07-09T15:05:50;98610.56;;;34.73;15.08
78717;BME280;68045;50.042;14.432;2023-07-09T15:09:51;98610.09;;;34.60;15.11
78717;BME280;68045;50.042;14.432;2023-07-09T15:13:52;98605.72;;;34.52;15.67
78717;BME280;68045;50.042;14.432;2023-07-09T15:17:55;98609.09;;;34.35;15.93
78717;BME280;68045;50.042;14.432;2023-07-09T15:21:57;98603.03;;;34.59;16.56
78717;BME280;68045;50.042;14.432;2023-07-09T15:25:58;98592.41;;;34.47;16.19
78717;BME280;68045;50.042;14.432;2023-07-09T15:30:00;98594.63;;;34.34;16.04
78717;BME280;68045;50.042;14.432;2023-07-09T15:34:01;98596.53;;;34.30;16.20
78717;BME280;68045;50.042;14.432;2023-07-09T15:38:29;98588.69;;;34.29;17.17
78717;BME280;68045;50.042;14.432;2023-07-09T15:42:31;98579.13;;;34.05;17.64
78717;BME280;68045;50.042;14.432;2023-07-09T15:46:33;98575.78;;;33.85;17.81
78717;BME280;68045;50.042;14.432;2023-07-09T15:50:36;98572.19;;;33.77;18.18
78717;BME280;68045;50.042;14.432;2023-07-09T15:54:37;98564.31;;;33.72;18.56
78717;BME280;68045;50.042;14.432;2023-07-09T15:58:42;98565.31;;;33.57;19.81
78717;BME280;68045;50.042;14.432;2023-07-09T16:02:44;98559.59;;;33.36;17.42
78717;BME280;68045;50.042;14.432;2023-07-09T16:06:45;98560.31;;;33.32;17.61
78717;BME280;68045;50.042;14.432;2023-07-09T16:10:46;98559.91;;;33.27;17.89
78717;BME280;68045;50.042;14.432;2023-07-09T16:14:47;98543.50;;;33.30;16.69
78717;BME280;68045;50.042;14.432;2023-07-09T16:18:49;98544.59;;;33.22;16.92
78717;BME280;68045;50.042;14.432;2023-07-09T16:22:50;98543.25;;;33.09;16.38
78717;BME280;68045;50.042;14.432;2023-07-09T16:26:51;98537.31;;;33.03;17.88
78717;BME280;68045;50.042;14.432;2023-07-09T16:30:52;98532.91;;;32.92;17.15
78717;BME280;68045;50.042;14.432;2023-07-09T16:34:55;98534.38;;;32.86;17.29
78717;BME280;68045;50.042;14.432;2023-07-09T16:38:56;98528.03;;;32.82;17.78
78717;BME280;68045;50.042;14.432;2023-07-09T16:42:59;98531.00;;;32.69;18.07
78717;BME280;68045;50.042;14.432;2023-07-09T16:47:07;98518.16;;;32.73;17.69
78717;BME280;68045;50.042;14.432;2023-07-09T16:51:14;98519.03;;;32.51;18.19
78717;BME280;68045;50.042;14.432;2023-07-09T16:55:20;98522.38;;;32.37;19.66
78717;BME280;68045;50.042;14.432;2023-07-09T16:59:22;98517.22;;;32.32;20.22
78717;BME280;68045;50.042;14.432;2023-07-09T17:03:22;98520.34;;;32.34;19.23
78717;BME280;68045;50.042;14.432;2023-07-09T17:07:24;98517.06;;;32.25;19.42
78717;BME280;68045;50.042;14.432;2023-07-09T17:11:25;98509.63;;;32.22;18.66
78717;BME280;68045;50.042;14.432;2023-07-09T17:15:29;98517.75;;;32.18;19.43
78717;BME280;68045;50.042;14.432;2023-07-09T17:19:33;98505.88;;;32.07;19.04
78717;BME280;68045;50.042;14.432;2023-07-09T17:23:34;98509.06;;;32.13;19.48
78717;BME280;68045;50.042;14.432;2023-07-09T17:27:35;98511.16;;;31.96;19.49
78717;BME280;68045;50.042;14.432;2023-07-09T17:31:36;98514.88;;;31.85;20.01
78717;BME280;68045;50.042;14.432;2023-07-09T17:35:38;98513.09;;;31.73;20.34
78717;BME280;68045;50.042;14.432;2023-07-09T17:39:39;98514.97;;;31.69;19.66
78717;BME280;68045;50.042;14.432;2023-07-09T17:43:40;98512.84;;;31.59;19.91
78717;BME280;68045;50.042;14.432;2023-07-09T17:47:43;98516.66;;;31.54;20.47
78717;BME280;68045;50.042;14.432;2023-07-09T17:51:44;98521.38;;;31.57;20.25
78717;BME280;68045;50.042;14.432;2023-07-09T17:55:46;98521.13;;;31.43;20.51
78717;BME280;68045;50.042;14.432;2023-07-09T17:59:47;98527.13;;;31.29;20.47
78717;BME280;68045;50.042;14.432;2023-07-09T18:03:48;98524.22;;;31.22;20.75
78717;BME280;68045;50.042;14.432;2023-07-09T18:07:49;98525.16;;;31.10;20.82
78717;BME280;68045;50.042;14.432;2023-07-09T18:11:52;98521.78;;;30.98;20.98
78717;BME280;68045;50.042;14.432;2023-07-09T18:15:54;98520.78;;;30.86;21.43
78717;BME280;68045;50.042;14.432;2023-07-09T18:19:55;98528.38;;;30.77;21.31
78717;BME280;68045;50.042;14.432;2023-07-09T18:23:56;98520.59;;;30.60;21.22
78717;BME280;68045;50.042;14.432;2023-07-09T18:27:59;98530.81;;;30.47;21.12
78717;BME280;68045;50.042;14.432;2023-07-09T18:32:01;98534.00;;;30.33;22.22
78717;BME280;68045;50.042;14.432;2023-07-09T18:36:03;98536.91;;;30.09;22.78
78717;BME280;68045;50.042;14.432;2023-07-09T18:40:04;98539.88;;;29.88;23.12
78717;BME280;68045;50.042;14.432;2023-07-09T18:44:20;98548.56;;;29.78;22.92
78717;BME280;68045;50.042;14.432;2023-07-09T18:48:22;98543.13;;;29.62;23.67
78717;BME280;68045;50.042;14.432;2023-07-09T18:52:26;98539.66;;;29.49;23.63
78717;BME280;68045;50.042;14.432;2023-07-09T18:56:29;98546.47;;;29.43;23.90
78717;BME280;68045;50.042;14.432;2023-07-09T19:00:31;98550.22;;;29.39;23.60
78717;BME280;68045;50.042;14.432;2023-07-09T19:04:32;98549.44;;;29.38;23.22
78717;BME280;68045;50.042;14.432;2023-07-09T19:08:34;98559.88;;;29.36;23.40
78717;BME280;68045;50.042;14.432;2023-07-09T19:12:37;98550.22;;;29.39;22.87
78717;BME280;68045;50.042;14.432;2023-07-09T19:16:38;98552.56;;;29.52;22.84
78717;BME280;68045;50.042;14.432;2023-07-09T19:20:38;98540.78;;;29.48;22.93
78717;BME280;68045;50.042;14.432;2023-07-09T19:24:42;98550.56;;;29.37;23.40
78717;BME280;68045;50.042;14.432;2023-07-09T19:28:44;98549.75;;;29.21;23.49
78717;BME280;68045;50.042;14.432;2023-07-09T19:32:49;98557.16;;;29.08;23.75
78717;BME280;68045;50.042;14.432;2023-07-09T19:36:54;98558.69;;;28.93;24.03
78717;BME280;68045;50.042;14.432;2023-07-09T19:40:55;98569.66;;;28.85;25.46
78717;BME280;68045;50.042;14.432;2023-07-09T19:44:56;98561.88;;;28.71;26.43
78717;BME280;68045;50.042;14.432;2023-07-09T19:48:57;98557.84;;;28.40;26.78
78717;BME280;68045;50.042;14.432;2023-07-09T19:53:00;98566.97;;;28.24;26.51
78717;BME280;68045;50.042;14.432;2023-07-09T19:57:01;98572.50;;;28.15;26.43
78717;BME280;68045;50.042;14.432;2023-07-09T20:01:02;98566.50;;;28.09;26.57
78717;BME280;68045;50.042;14.432;2023-07-09T20:05:13;98573.63;;;28.14;26.71
78717;BME280;68045;50.042;14.432;2023-07-09T20:09:15;98579.16;;;28.17;27.50
78717;BME280;68045;50.042;14.432;2023-07-09T20:13:23;98568.31;;;28.05;28.37
78717;BME280;68045;50.042;14.432;2023-07-09T20:17:24;98570.19;;;27.80;28.45
78717;BME280;68045;50.042;14.432;2023-07-09T20:21:26;98566.16;;;27.65;28.41
78717;BME280;68045;50.042;14.432;2023-07-09T20:25:27;98566.56;;;27.55;28.64
78717;BME280;68045;50.042;14.432;2023-07-09T20:29:28;98563.75;;;27.52;28.94
78717;BME280;68045;50.042;14.432;2023-07-09T20:33:28;98570.72;;;27.41;29.52
78717;BME280;68045;50.042;14.432;2023-07-09T20:37:29;98572.72;;;27.31;29.88
78717;BME280;68045;50.042;14.432;2023-07-09T20:41:30;98567.38;;;27.23;29.93
78717;BME280;68045;50.042;14.432;2023-07-09T20:45:32;98570.81;;;27.11;30.62
78717;BME280;68045;50.042;14.432;2023-07-09T20:49:35;98559.25;;;27.23;30.43
78717;BME280;68045;50.042;14.432;2023-07-09T20:53:36;98562.56;;;26.99;30.79
78717;BME280;68045;50.042;14.432;2023-07-09T20:57:37;98570.03;;;27.10;31.95
78717;BME280;68045;50.042;14.432;2023-07-09T21:01:38;98568.34;;;27.18;32.50
78717;BME280;68045;50.042;14.432;2023-07-09T21:05:39;98580.50;;;26.91;32.10
78717;BME280;68045;50.042;14.432;2023-07-09T21:09:40;98589.72;;;26.69;32.71
78717;BME280;68045;50.042;14.432;2023-07-09T21:13:41;98587.47;;;26.50;33.50
78717;BME280;68045;50.042;14.432;2023-07-09T21:17:42;98586.09;;;26.27;33.01
78717;BME280;68045;50.042;14.432;2023-07-09T21:21:43;98584.88;;;26.16;33.52
78717;BME280;68045;50.042;14.432;2023-07-09T21:25:44;98583.47;;;26.10;33.49
78717;BME280;68045;50.042;14.432;2023-07-09T21:29:45;98583.78;;;26.08;33.29
78717;BME280;68045;50.042;14.432;2023-07-09T21:33:46;98587.59;;;26.07;34.33
78717;BME280;68045;50.042;14.432;2023-07-09T21:37:49;98584.28;;;26.01;34.08
78717;BME280;68045;50.042;14.432;2023-07-09T21:41:52;98590.34;;;25.98;34.90
78717;BME280;68045;50.042;14.432;2023-07-09T21:45:57;98600.22;;;25.86;34.85